sensor_id;sensor_type;location;lat;lon;timestamp;P1;durP1;ratioP1;P2;durP2;ratioP2
26696;SDS011;14312;52.614;13.496;2022-11-25T15:04:46;11.88;;;8.35;;
26696;SDS011;14312;52.614;13.496;2022-11-25T15:07:39;12.90;;;9.02;;
26696;SDS011;14312;52.614;13.496;2022-11-25T15:10:27;12.45;;;9.27;;
26696;SDS011;14312;52.614;13.496;2022-11-25T15:13:29;14.70;;;9.88;;
26696;SDS011;14312;52.614;13.496;2022-11-25T15:16:28;17.58;;;10.40;;
26696;SDS011;14312;52.614;13.496;2022-11-25T15:19:20;13.65;;;9.52;;
26696;SDS011;14312;52.614;13.496;2022-11-25T15:22:10;13.73;;;10.80;;
26696;SDS011;14312;52.614;13.496;2022-11-25T15:25:07;15.40;;;12.63;;
26696;SDS011;14312;52.614;13.496;2022-11-25T15:27:58;13.68;;;9.77;;
26696;SDS011;14312;52.614;13.496;2022-11-25T15:30:57;11.20;;;9.32;;
26696;SDS011;14312;52.614;13.496;2022-11-25T15:33:49;11.70;;;9.32;;
26696;SDS011;14312;52.614;13.496;2022-11-25T15:36:41;11.35;;;9.57;;
26696;SDS011;14312;52.614;13.496;2022-11-25T15:39:26;12.13;;;7.95;;
26696;SDS011;14312;52.614;13.496;2022-11-25T15:42:23;15.07;;;8.10;;
26696;SDS011;14312;52.614;13.496;2022-11-25T15:45:18;9.02;;;7.50;;
26696;SDS011;14312;52.614;13.496;2022-11-25T15:48:05;11.65;;;8.13;;
26696;SDS011;14312;52.614;13.496;2022-11-25T15:50:57;11.98;;;10.02;;
26696;SDS011;14312;52.614;13.496;2022-11-25T15:54:13;12.43;;;8.07;;
26696;SDS011;14312;52.614;13.496;2022-11-25T15:57:02;9.38;;;8.07;;
26696;SDS011;14312;52.614;13.496;2022-11-25T16:05:35;11.50;;;9.52;;
26696;SDS011;14312;52.614;13.496;2022-11-25T16:08:35;11.30;;;9.07;;
26696;SDS011;14312;52.614;13.496;2022-11-25T16:11:22;13.88;;;9.90;;
26696;SDS011;14312;52.614;13.496;2022-11-25T16:14:28;11.23;;;9.95;;
26696;SDS011;14312;52.614;13.496;2022-11-25T16:17:19;11.43;;;9.35;;
26696;SDS011;14312;52.614;13.496;2022-11-25T16:20:13;12.95;;;9.38;;
26696;SDS011;14312;52.614;13.496;2022-11-25T16:23:06;10.35;;;8.80;;
26696;SDS011;14312;52.614;13.496;2022-11-25T16:25:57;11.35;;;7.95;;
26696;SDS011;14312;52.614;13.496;2022-11-25T16:28:54;11.95;;;8.50;;
26696;SDS011;14312;52.614;13.496;2022-11-25T16:31:41;11.38;;;8.93;;
26696;SDS011;14312;52.614;13.496;2022-11-25T16:34:27;11.55;;;8.85;;
26696;SDS011;14312;52.614;13.496;2022-11-25T16:37:19;9.57;;;8.48;;
26696;SDS011;14312;52.614;13.496;2022-11-25T16:40:05;9.50;;;8.45;;
26696;SDS011;14312;52.614;13.496;2022-11-25T16:42:52;12.82;;;9.48;;
26696;SDS011;14312;52.614;13.496;2022-11-25T16:45:38;11.45;;;8.15;;
26696;SDS011;14312;52.614;13.496;2022-11-25T16:48:24;10.18;;;8.70;;
26696;SDS011;14312;52.614;13.496;2022-11-25T16:51:14;10.82;;;9.00;;
26696;SDS011;14312;52.614;13.496;2022-11-25T16:54:02;11.25;;;9.07;;
26696;SDS011;14312;52.614;13.496;2022-11-25T16:56:50;10.70;;;9.05;;
26696;SDS011;14312;52.614;13.496;2022-11-25T16:59:38;11.63;;;9.48;;
26696;SDS011;14312;52.614;13.496;2022-11-25T17:02:27;14.13;;;8.95;;
26696;SDS011;14312;52.614;13.496;2022-11-25T17:05:17;10.05;;;8.60;;
26696;SDS011;14312;52.614;13.496;2022-11-25T17:08:06;10.07;;;8.88;;
26696;SDS011;14312;52.614;13.496;2022-11-25T17:10:52;10.20;;;9.02;;
26696;SDS011;14312;52.614;13.496;2022-11-25T17:13:43;10.73;;;8.93;;
26696;SDS011;14312;52.614;13.496;2022-11-25T17:16:33;11.85;;;9.70;;
26696;SDS011;14312;52.614;13.496;2022-11-25T17:19:19;10.38;;;9.25;;
26696;SDS011;14312;52.614;13.496;2022-11-25T17:22:11;10.52;;;8.80;;
26696;SDS011;14312;52.614;13.496;2022-11-25T17:25:01;11.90;;;9.60;;
26696;SDS011;14312;52.614;13.496;2022-11-25T17:27:48;12.30;;;9.45;;
26696;SDS011;14312;52.614;13.496;2022-11-25T17:30:35;11.55;;;8.98;;
26696;SDS011;14312;52.614;13.496;2022-11-25T17:33:23;13.95;;;9.40;;
26696;SDS011;14312;52.614;13.496;2022-11-25T17:36:09;11.57;;;9.00;;
26696;SDS011;14312;52.614;13.496;2022-11-25T17:38:57;11.48;;;9.45;;
26696;SDS011;14312;52.614;13.496;2022-11-25T17:41:44;11.73;;;9.88;;
26696;SDS011;14312;52.614;13.496;2022-11-25T17:44:32;12.02;;;9.43;;
26696;SDS011;14312;52.614;13.496;2022-11-25T17:47:19;10.40;;;9.30;;
26696;SDS011;14312;52.614;13.496;2022-11-25T17:50:24;10.25;;;8.95;;
26696;SDS011;14312;52.614;13.496;2022-11-25T17:53:10;10.05;;;8.48;;
26696;SDS011;14312;52.614;13.496;2022-11-25T17:55:56;10.13;;;8.50;;
26696;SDS011;14312;52.614;13.496;2022-11-25T17:58:42;12.10;;;8.77;;
26696;SDS011;14312;52.614;13.496;2022-11-25T18:01:28;10.20;;;8.98;;
26696;SDS011;14312;52.614;13.496;2022-11-25T18:04:20;9.75;;;8.75;;
26696;SDS011;14312;52.614;13.496;2022-11-25T18:07:08;10.57;;;8.77;;
26696;SDS011;14312;52.614;13.496;2022-11-25T18:09:55;13.35;;;9.60;;
26696;SDS011;14312;52.614;13.496;2022-11-25T18:12:46;16.80;;;14.80;;
26696;SDS011;14312;52.614;13.496;2022-11-25T18:15:34;21.90;;;18.73;;
